createdAt,value
2023-11-25T00:01:30.168Z,2.87
2023-11-25T00:03:56.713Z,2.83
2023-11-25T00:06:23.155Z,3.16
2023-11-25T00:08:49.616Z,2.85
2023-11-25T00:11:25.213Z,2.68
2023-11-25T00:13:54.908Z,2.83
2023-11-25T00:16:21.391Z,2.92
2023-11-25T00:18:49.204Z,2.90
2023-11-25T00:21:15.692Z,2.83
2023-11-25T00:23:42.564Z,2.80
2023-11-25T00:26:09.168Z,2.75
2023-11-25T00:28:35.687Z,2.69
2023-11-25T00:31:02.196Z,2.46
2023-11-25T00:33:29.430Z,2.63
2023-11-25T00:35:56.006Z,2.59
2023-11-25T00:38:23.408Z,2.47
2023-11-25T00:40:50.299Z,2.43
2023-11-25T00:43:17.283Z,2.38
2023-11-25T00:45:43.971Z,2.36
2023-11-25T00:48:10.596Z,2.19
2023-11-25T00:50:37.136Z,2.28
2023-11-25T00:53:04.100Z,1.99
2023-11-25T00:55:30.811Z,2.03
2023-11-25T00:57:57.392Z,2.20
2023-11-25T01:00:27.101Z,2.18
2023-11-25T01:02:54.217Z,1.89
2023-11-25T01:05:20.864Z,1.86
2023-11-25T01:07:47.377Z,2.10
2023-11-25T01:10:14.131Z,2.02
2023-11-25T01:12:41.137Z,1.83
2023-11-25T01:15:08.399Z,1.75
2023-11-25T01:17:34.969Z,2.01
2023-11-25T01:20:01.516Z,1.99
2023-11-25T01:22:28.052Z,1.62
2023-11-25T01:24:54.987Z,1.92
2023-11-25T01:27:24.339Z,1.70
2023-11-25T01:29:51.555Z,1.87
2023-11-25T01:32:18.068Z,1.88
2023-11-25T01:34:44.574Z,1.50
2023-11-25T01:37:12.970Z,1.72
2023-11-25T01:39:39.558Z,1.89
2023-11-25T01:42:06.008Z,1.87
2023-11-25T01:44:33.347Z,1.92
2023-11-25T01:47:00.106Z,1.83
2023-11-25T01:49:27.614Z,1.93
2023-11-25T01:51:55.260Z,1.81
2023-11-25T01:54:22.722Z,1.79
2023-11-25T01:56:54.569Z,1.75
2023-11-25T01:59:23.627Z,1.63
2023-11-25T02:01:50.722Z,2.01
2023-11-25T02:04:18.379Z,1.85
2023-11-25T02:06:44.967Z,1.80
2023-11-25T02:09:12.672Z,1.77
2023-11-25T02:11:58.732Z,1.79
2023-11-25T02:14:26.533Z,2.03
2023-11-25T02:16:53.625Z,2.02
2023-11-25T02:19:21.380Z,2.00
2023-11-25T02:21:48.042Z,2.05
2023-11-25T02:24:14.963Z,1.99
2023-11-25T02:26:41.441Z,1.98
2023-11-25T02:29:08.037Z,2.22
2023-11-25T02:31:34.563Z,2.24
2023-11-25T02:34:01.180Z,2.03
2023-11-25T02:36:28.131Z,2.28
2023-11-25T02:38:54.710Z,2.34
2023-11-25T02:41:21.456Z,2.20
2023-11-25T02:43:48.122Z,2.20
2023-11-25T02:46:14.858Z,2.37
2023-11-25T02:48:41.364Z,2.32
2023-11-25T02:51:10.648Z,2.35
2023-11-25T02:53:37.123Z,2.52
2023-11-25T02:56:03.751Z,2.59
2023-11-25T02:58:33.373Z,2.69
2023-11-25T03:01:07.671Z,2.72
2023-11-25T03:03:38.039Z,2.76
2023-11-25T03:06:07.091Z,2.69
2023-11-25T03:08:35.855Z,2.78
2023-11-25T03:11:07.419Z,2.71
2023-11-25T03:13:33.911Z,2.73
2023-11-25T03:16:02.698Z,2.82
2023-11-25T03:18:29.390Z,2.81
2023-11-25T03:20:55.909Z,2.82
2023-11-25T03:23:22.564Z,2.84
2023-11-25T03:25:49.066Z,2.85
2023-11-25T03:28:16.327Z,2.87
2023-11-25T03:30:42.940Z,2.82
2023-11-25T03:33:11.380Z,2.84
2023-11-25T03:35:38.037Z,2.68
2023-11-25T03:38:04.513Z,2.90
2023-11-25T03:40:31.244Z,2.87
2023-11-25T03:42:59.611Z,3.02
2023-11-25T03:45:27.247Z,3.09
2023-11-25T03:47:55.590Z,3.14
2023-11-25T03:50:22.053Z,3.18
2023-11-25T03:52:49.205Z,3.27
2023-11-25T03:55:15.692Z,3.37
2023-11-25T03:57:44.248Z,3.48
2023-11-25T04:00:17.843Z,3.41
2023-11-25T04:02:48.981Z,3.59
2023-11-25T04:05:17.623Z,3.74
2023-11-25T04:07:44.851Z,3.78
2023-11-25T04:10:16.737Z,3.92
2023-11-25T04:12:44.991Z,3.98
2023-11-25T04:15:12.498Z,3.97
2023-11-25T04:17:43.122Z,4.08
2023-11-25T04:20:14.807Z,4.06
2023-11-25T04:22:42.972Z,4.16
2023-11-25T04:25:13.497Z,4.02
2023-11-25T04:27:44.478Z,4.23
2023-11-25T04:30:12.479Z,4.21
2023-11-25T04:32:41.149Z,4.23
2023-11-25T04:35:08.898Z,4.06
2023-11-25T04:37:35.936Z,4.22
2023-11-25T04:40:06.330Z,4.11
2023-11-25T04:42:33.516Z,4.22
2023-11-25T04:45:00.545Z,4.17
2023-11-25T04:47:28.056Z,4.19
2023-11-25T04:49:55.283Z,4.03
2023-11-25T04:52:21.988Z,4.20
2023-11-25T04:54:49.972Z,4.20
2023-11-25T04:57:16.792Z,3.98
2023-11-25T04:59:43.464Z,4.17
2023-11-25T05:02:10.119Z,4.14
2023-11-25T05:04:36.635Z,4.30
2023-11-25T05:07:04.915Z,4.28
2023-11-25T05:09:31.430Z,4.36
2023-11-25T05:11:57.880Z,4.32
2023-11-25T05:14:24.437Z,4.41
2023-11-25T05:16:51.483Z,4.43
2023-11-25T05:19:18.335Z,4.46
2023-11-25T05:21:44.920Z,4.47
2023-11-25T05:24:12.017Z,4.47
2023-11-25T05:26:38.513Z,4.48
2023-11-25T05:29:06.447Z,4.47
2023-11-25T05:31:34.681Z,4.50
2023-11-25T05:34:04.756Z,4.50
2023-11-25T05:36:32.748Z,4.52
2023-11-25T05:39:00.911Z,4.52
2023-11-25T05:41:32.030Z,4.53
2023-11-25T05:43:58.904Z,4.54
2023-11-25T05:46:25.706Z,4.29
2023-11-25T05:48:53.969Z,4.57
2023-11-25T05:51:20.724Z,4.58
2023-11-25T05:53:48.278Z,4.44
2023-11-25T05:56:14.796Z,4.28
2023-11-25T05:58:41.304Z,4.43
2023-11-25T06:01:07.857Z,4.67
2023-11-25T06:03:34.785Z,4.65
2023-11-25T06:06:01.994Z,4.71
2023-11-25T06:08:28.432Z,4.57
2023-11-25T06:10:57.225Z,4.71
2023-11-25T06:13:24.174Z,4.79
2023-11-25T06:15:52.784Z,4.82
2023-11-25T06:18:21.516Z,4.90
2023-11-25T06:20:48.893Z,4.91
2023-11-25T06:23:18.672Z,4.93
2023-11-25T06:25:45.498Z,4.95
2023-11-25T06:28:18.457Z,4.94
2023-11-25T06:30:45.036Z,4.83
2023-11-25T06:33:11.554Z,4.81
2023-11-25T06:35:38.362Z,4.87
2023-11-25T06:38:05.657Z,4.77
2023-11-25T06:40:34.586Z,4.76
2023-11-25T06:43:01.613Z,4.68
2023-11-25T06:45:28.123Z,4.60
2023-11-25T06:47:55.615Z,4.55
2023-11-25T06:50:23.501Z,4.47
2023-11-25T06:52:50.205Z,4.41
2023-11-25T06:55:19.024Z,4.45
2023-11-25T06:57:45.685Z,4.38
2023-11-25T07:00:12.952Z,4.30
2023-11-25T07:02:40.915Z,4.31
2023-11-25T07:05:11.452Z,4.26
2023-11-25T07:07:38.674Z,4.22
2023-11-25T07:10:05.849Z,4.14
2023-11-25T07:12:32.317Z,4.13
2023-11-25T07:14:59.982Z,4.10
2023-11-25T07:17:26.594Z,4.06
2023-11-25T07:19:53.482Z,4.03
2023-11-25T07:22:20.677Z,4.00
2023-11-25T07:24:47.835Z,3.99
2023-11-25T07:27:19.366Z,3.96
2023-11-25T07:29:46.743Z,3.98
2023-11-25T07:32:16.306Z,3.99
2023-11-25T07:34:42.810Z,4.02
2023-11-25T07:37:09.320Z,4.02
2023-11-25T07:39:36.055Z,4.01
2023-11-25T07:42:02.846Z,4.03
2023-11-25T07:44:32.123Z,4.00
2023-11-25T07:46:59.726Z,4.04
2023-11-25T07:49:26.711Z,3.82
2023-11-25T07:51:53.332Z,4.06
2023-11-25T07:54:19.924Z,3.70
2023-11-25T07:56:46.798Z,3.94
2023-11-25T07:59:13.275Z,4.14
2023-11-25T08:01:40.071Z,4.16
2023-11-25T08:04:06.663Z,4.22
2023-11-25T08:06:33.177Z,4.20
2023-11-25T08:09:00.203Z,4.28
2023-11-25T08:11:29.072Z,4.25
2023-11-25T08:13:55.991Z,4.33
2023-11-25T08:16:22.713Z,4.52
2023-11-25T08:18:49.207Z,4.60
2023-11-25T08:21:16.018Z,4.77
2023-11-25T08:23:43.402Z,4.82
2023-11-25T08:26:24.524Z,4.98
2023-11-25T08:28:51.339Z,5.04
2023-11-25T08:31:18.336Z,5.09
2023-11-25T08:33:45.160Z,5.15
2023-11-25T08:36:12.578Z,5.23
2023-11-25T08:38:42.296Z,4.81
2023-11-25T08:41:08.987Z,5.32
2023-11-25T08:43:40.886Z,5.39
2023-11-25T08:46:08.011Z,5.44
2023-11-25T08:48:34.714Z,5.18
2023-11-25T08:51:01.583Z,5.47
2023-11-25T08:53:30.296Z,5.51
2023-11-25T08:55:57.384Z,5.57
2023-11-25T08:58:26.835Z,5.41
2023-11-25T09:00:53.458Z,5.74
2023-11-25T09:03:20.244Z,5.83
2023-11-25T09:05:47.809Z,5.85
2023-11-25T09:08:15.174Z,5.97
2023-11-25T09:10:42.229Z,5.98
2023-11-25T09:13:08.814Z,6.12
2023-11-25T09:15:41.645Z,6.18
2023-11-25T09:18:09.044Z,6.22
2023-11-25T09:20:35.741Z,6.31
2023-11-25T09:23:02.391Z,6.15
2023-11-25T09:25:30.449Z,6.43
2023-11-25T09:27:57.003Z,6.40
2023-11-25T09:30:24.306Z,6.49
2023-11-25T09:32:50.845Z,6.47
2023-11-25T09:35:17.468Z,6.49
2023-11-25T09:37:44.698Z,6.46
2023-11-25T09:40:16.030Z,6.40
2023-11-25T09:42:44.351Z,6.43
2023-11-25T09:45:11.764Z,6.46
2023-11-25T09:47:45.093Z,6.53
2023-11-25T09:50:12.199Z,6.32
2023-11-25T09:52:48.595Z,6.66
2023-11-25T09:55:17.754Z,6.74
2023-11-25T09:57:46.278Z,6.84
2023-11-25T10:00:17.608Z,6.89
2023-11-25T10:02:56.351Z,6.95
2023-11-25T10:05:23.368Z,6.87
2023-11-25T10:07:49.963Z,7.22
2023-11-25T10:10:24.520Z,7.05
2023-11-25T10:12:51.751Z,7.04
2023-11-25T10:15:19.045Z,7.46
2023-11-25T10:17:49.179Z,7.51
2023-11-25T10:20:20.416Z,7.63
2023-11-25T10:22:49.025Z,7.60
2023-11-25T10:25:19.655Z,7.79
2023-11-25T10:27:47.733Z,7.87
2023-11-25T10:30:15.440Z,7.90
2023-11-25T10:32:42.684Z,7.98
2023-11-25T10:35:12.839Z,8.02
2023-11-25T10:37:41.001Z,8.02
2023-11-25T10:40:12.271Z,8.13
2023-11-25T10:42:46.273Z,8.17
2023-11-25T10:45:17.694Z,8.26
2023-11-25T10:47:45.168Z,8.24
2023-11-25T10:50:14.324Z,8.33
2023-11-25T10:52:44.194Z,8.41
2023-11-25T10:55:11.012Z,8.56
2023-11-25T10:57:37.716Z,8.70
2023-11-25T11:00:11.686Z,8.79
2023-11-25T11:02:45.246Z,8.92
2023-11-25T11:05:15.261Z,8.80
2023-11-25T11:07:48.874Z,9.11
2023-11-25T11:10:26.279Z,8.92
2023-11-25T11:13:00.952Z,9.23
2023-11-25T11:15:28.941Z,9.28
2023-11-25T11:18:10.330Z,9.33
2023-11-25T11:20:43.431Z,9.41
2023-11-25T11:23:10.444Z,9.38
2023-11-25T11:25:39.794Z,9.42
2023-11-25T11:28:23.956Z,9.42
2023-11-25T11:31:08.635Z,9.42
2023-11-25T11:33:36.310Z,9.15
2023-11-25T11:36:06.651Z,9.24
2023-11-25T11:38:33.462Z,9.17
2023-11-25T11:41:20.930Z,9.12
2023-11-25T11:44:06.683Z,9.03
2023-11-25T11:46:39.713Z,8.67
2023-11-25T11:49:08.922Z,8.81
2023-11-25T11:51:36.756Z,8.75
2023-11-25T11:54:21.632Z,8.96
2023-11-25T11:57:04.060Z,9.02
2023-11-25T12:00:02.850Z,9.15
2023-11-25T12:02:31.247Z,9.21
2023-11-25T12:04:59.159Z,9.25
2023-11-25T12:07:27.445Z,9.30
2023-11-25T12:09:56.126Z,9.08
2023-11-25T12:12:23.201Z,9.08
2023-11-25T12:14:52.057Z,9.15
2023-11-25T12:17:20.132Z,9.07
2023-11-25T12:19:46.793Z,8.96
2023-11-25T12:22:13.724Z,8.90
2023-11-25T12:24:43.580Z,8.45
2023-11-25T12:27:15.650Z,8.86
2023-11-25T12:29:42.247Z,8.90
2023-11-25T12:32:08.881Z,8.94
2023-11-25T12:34:36.489Z,9.01
2023-11-25T12:37:03.274Z,9.07
2023-11-25T12:39:29.766Z,9.12
2023-11-25T12:41:56.386Z,8.94
2023-11-25T12:44:22.961Z,8.78
2023-11-25T12:47:05.005Z,9.23
2023-11-25T12:49:32.628Z,9.23
2023-11-25T12:51:59.195Z,9.31
2023-11-25T12:54:26.386Z,9.35
2023-11-25T12:56:54.505Z,9.12
2023-11-25T12:59:33.396Z,9.38
2023-11-25T13:02:08.258Z,9.43
2023-11-25T13:04:36.525Z,9.33
2023-11-25T13:07:03.920Z,9.28
2023-11-25T13:09:34.649Z,9.10
2023-11-25T13:12:01.256Z,9.17
2023-11-25T13:14:27.730Z,9.17
2023-11-25T13:16:54.770Z,9.12
2023-11-25T13:19:23.156Z,9.08
2023-11-25T13:21:50.075Z,9.04
2023-11-25T13:24:16.856Z,9.00
2023-11-25T13:26:43.778Z,8.96
2023-11-25T13:29:10.897Z,8.76
2023-11-25T13:31:37.517Z,8.85
2023-11-25T13:34:06.398Z,8.71
2023-11-25T13:36:32.884Z,8.85
2023-11-25T13:38:59.808Z,8.67
2023-11-25T13:41:27.688Z,8.58
2023-11-25T13:43:55.308Z,8.71
2023-11-25T13:46:21.974Z,8.75
2023-11-25T13:48:48.768Z,8.78
2023-11-25T13:51:16.154Z,8.87
2023-11-25T13:53:42.652Z,8.90
2023-11-25T13:56:10.150Z,8.96
2023-11-25T13:58:37.919Z,9.00
2023-11-25T14:01:06.918Z,8.97
2023-11-25T14:03:33.604Z,8.96
2023-11-25T14:06:00.203Z,8.93
2023-11-25T14:08:29.417Z,8.86
2023-11-25T14:10:56.988Z,8.76
2023-11-25T14:13:24.549Z,8.67
2023-11-25T14:15:51.100Z,8.41
2023-11-25T14:18:17.582Z,8.35
2023-11-25T14:20:44.125Z,8.33
2023-11-25T14:23:11.702Z,8.12
2023-11-25T14:25:38.617Z,8.31
2023-11-25T14:28:06.189Z,8.04
2023-11-25T14:30:34.845Z,8.17
2023-11-25T14:33:04.671Z,7.99
2023-11-25T14:35:32.520Z,8.04
2023-11-25T14:38:01.584Z,7.95
2023-11-25T14:40:30.192Z,7.88
2023-11-25T14:42:56.958Z,7.66
2023-11-25T14:45:23.469Z,7.74
2023-11-25T14:47:50.134Z,7.67
2023-11-25T14:50:16.743Z,7.66
2023-11-25T14:52:43.436Z,7.67
2023-11-25T14:55:10.120Z,7.63
2023-11-25T14:57:37.617Z,7.59
2023-11-25T15:00:09.720Z,7.21
2023-11-25T15:02:36.726Z,7.26
2023-11-25T15:05:03.847Z,7.07
2023-11-25T15:07:30.402Z,6.90
2023-11-25T15:09:56.865Z,6.39
2023-11-25T15:12:24.079Z,6.38
2023-11-25T15:14:52.982Z,6.23
2023-11-25T15:17:22.855Z,5.98
2023-11-25T15:19:49.691Z,5.95
2023-11-25T15:22:16.878Z,5.80
2023-11-25T15:24:43.435Z,5.73
2023-11-25T15:27:09.899Z,5.61
2023-11-25T15:29:36.926Z,5.45
2023-11-25T15:32:03.655Z,5.49
2023-11-25T15:34:30.335Z,5.42
2023-11-25T15:36:56.913Z,5.34
2023-11-25T15:39:28.025Z,5.16
2023-11-25T15:41:54.851Z,5.00
2023-11-25T15:44:21.404Z,5.15
2023-11-25T15:46:47.884Z,4.98
2023-11-25T15:49:14.429Z,5.04
2023-11-25T15:51:41.026Z,5.05
2023-11-25T15:54:07.557Z,4.83
2023-11-25T15:56:34.065Z,5.03
2023-11-25T15:59:02.150Z,5.03
2023-11-25T16:01:29.801Z,4.93
2023-11-25T16:03:56.561Z,4.88
2023-11-25T16:06:25.669Z,5.08
2023-11-25T16:08:52.455Z,5.05
2023-11-25T16:11:18.965Z,5.02
2023-11-25T16:13:45.542Z,5.17
2023-11-25T16:16:12.130Z,5.08
2023-11-25T16:18:39.675Z,5.21
2023-11-25T16:21:06.410Z,4.98
2023-11-25T16:23:35.356Z,5.08
2023-11-25T16:26:03.421Z,5.38
2023-11-25T16:28:34.555Z,5.39
2023-11-25T16:31:02.811Z,5.10
2023-11-25T16:33:31.027Z,5.38
2023-11-25T16:35:59.119Z,5.37
2023-11-25T16:38:26.698Z,5.43
2023-11-25T16:40:53.446Z,5.20
2023-11-25T16:43:25.483Z,5.24
2023-11-25T16:45:53.052Z,5.43
2023-11-25T16:48:19.986Z,5.23
2023-11-25T16:50:46.423Z,5.26
2023-11-25T16:53:15.143Z,5.27
2023-11-25T16:55:41.802Z,5.37
2023-11-25T16:58:08.287Z,5.42
2023-11-25T17:00:35.000Z,5.38
2023-11-25T17:03:01.774Z,5.35
2023-11-25T17:05:28.749Z,5.29
2023-11-25T17:07:55.317Z,5.09
2023-11-25T17:10:25.658Z,5.07
2023-11-25T17:12:52.328Z,5.13
2023-11-25T17:15:18.759Z,5.06
2023-11-25T17:17:45.211Z,4.81
2023-11-25T17:20:12.019Z,4.98
2023-11-25T17:22:42.362Z,4.83
2023-11-25T17:25:12.332Z,4.83
2023-11-25T17:27:39.061Z,4.80
2023-11-25T17:30:06.877Z,4.70
2023-11-25T17:32:33.689Z,4.42
2023-11-25T17:35:00.630Z,4.50
2023-11-25T17:37:27.338Z,4.06
2023-11-25T17:39:53.772Z,4.16
2023-11-25T17:42:21.726Z,4.19
2023-11-25T17:44:48.161Z,4.03
2023-11-25T17:47:14.792Z,3.97
2023-11-25T17:49:41.241Z,3.78
2023-11-25T17:52:11.260Z,3.52
2023-11-25T17:54:37.724Z,3.64
2023-11-25T17:57:04.547Z,3.56
2023-11-25T17:59:33.161Z,3.45
2023-11-25T18:02:00.139Z,3.33
2023-11-25T18:04:26.836Z,3.22
2023-11-25T18:06:53.365Z,3.06
2023-11-25T18:09:21.222Z,3.00
2023-11-25T18:11:48.293Z,2.92
2023-11-25T18:14:14.813Z,2.73
2023-11-25T18:16:42.357Z,2.74
2023-11-25T18:19:11.787Z,2.50
2023-11-25T18:21:38.824Z,2.57
2023-11-25T18:24:05.928Z,2.18
2023-11-25T18:26:32.465Z,2.38
2023-11-25T18:28:58.974Z,2.43
2023-11-25T18:31:25.776Z,2.40
2023-11-25T18:33:52.207Z,2.37
2023-11-25T18:36:18.649Z,2.27
2023-11-25T18:38:45.095Z,2.31
2023-11-25T18:41:13.548Z,1.98
2023-11-25T18:43:40.554Z,2.31
2023-11-25T18:46:11.147Z,2.35
2023-11-25T18:48:38.598Z,2.36
2023-11-25T18:51:06.371Z,2.38
2023-11-25T18:53:34.515Z,2.39
2023-11-25T18:56:01.476Z,2.44
2023-11-25T18:58:29.251Z,2.39
2023-11-25T19:00:56.410Z,2.46
2023-11-25T19:03:22.973Z,2.50
2023-11-25T19:05:49.606Z,2.52
2023-11-25T19:08:16.205Z,2.51
2023-11-25T19:10:42.757Z,2.54
2023-11-25T19:13:10.220Z,2.53
2023-11-25T19:15:37.351Z,2.33
2023-11-25T19:18:04.342Z,2.47
2023-11-25T19:20:30.898Z,2.43
2023-11-25T19:22:57.484Z,2.26
2023-11-25T19:25:23.966Z,2.41
2023-11-25T19:27:50.421Z,2.39
2023-11-25T19:30:17.775Z,2.12
2023-11-25T19:32:44.296Z,2.30
2023-11-25T19:35:11.301Z,2.33
2023-11-25T19:37:37.845Z,2.36
2023-11-25T19:40:04.855Z,2.36
2023-11-25T19:42:31.505Z,2.35
2023-11-25T19:44:58.147Z,2.19
2023-11-25T19:47:24.657Z,2.35
2023-11-25T19:49:51.291Z,2.35
2023-11-25T19:52:17.762Z,2.35
2023-11-25T19:54:44.169Z,2.29
2023-11-25T19:57:13.479Z,2.33
2023-11-25T19:59:39.920Z,2.31
2023-11-25T20:02:07.078Z,2.29
2023-11-25T20:04:33.674Z,2.03
2023-11-25T20:07:00.262Z,2.21
2023-11-25T20:09:26.817Z,2.22
2023-11-25T20:11:56.969Z,2.17
2023-11-25T20:14:23.371Z,2.23
2023-11-25T20:16:49.887Z,2.00
2023-11-25T20:19:16.421Z,2.03
2023-11-25T20:21:42.860Z,1.90
2023-11-25T20:24:09.424Z,1.79
2023-11-25T20:26:37.365Z,1.92
2023-11-25T20:29:04.326Z,1.77
2023-11-25T20:31:30.791Z,1.84
2023-11-25T20:33:57.265Z,1.76
2023-11-25T20:36:23.686Z,1.76
2023-11-25T20:38:50.126Z,1.71
2023-11-25T20:41:16.564Z,1.68
2023-11-25T20:43:43.105Z,1.70
2023-11-25T20:46:09.732Z,1.67
2023-11-25T20:48:36.273Z,1.64
2023-11-25T20:51:07.898Z,1.64
2023-11-25T20:53:34.361Z,1.70
2023-11-25T20:56:00.799Z,1.63
2023-11-25T20:58:29.748Z,1.71
2023-11-25T21:00:57.565Z,1.35
2023-11-25T21:03:25.323Z,1.70
2023-11-25T21:05:51.846Z,1.40
2023-11-25T21:08:18.296Z,1.80
2023-11-25T21:10:45.586Z,1.79
2023-11-25T21:13:12.166Z,1.79
2023-11-25T21:15:38.808Z,1.76
2023-11-25T21:18:05.803Z,1.72
2023-11-25T21:20:32.428Z,1.76
2023-11-25T21:22:59.362Z,1.45
2023-11-25T21:25:25.929Z,1.72
2023-11-25T21:27:55.245Z,1.70
2023-11-25T21:30:21.744Z,1.64
2023-11-25T21:32:48.212Z,1.71
2023-11-25T21:35:15.301Z,1.45
2023-11-25T21:37:41.821Z,1.40
2023-11-25T21:40:16.748Z,1.71
2023-11-25T21:42:49.781Z,1.70
2023-11-25T21:45:16.362Z,1.70
2023-11-25T21:47:42.831Z,1.77
2023-11-25T21:50:10.473Z,1.55
2023-11-25T21:52:37.295Z,1.66
2023-11-25T21:55:05.270Z,1.88
2023-11-25T21:57:31.864Z,1.91
2023-11-25T21:59:59.541Z,1.94
2023-11-25T22:02:26.893Z,1.97
2023-11-25T22:04:53.442Z,1.74
2023-11-25T22:07:19.885Z,1.89
2023-11-25T22:09:46.330Z,1.96
2023-11-25T22:12:12.831Z,1.91
2023-11-25T22:14:39.289Z,1.98
2023-11-25T22:17:05.751Z,1.70
2023-11-25T22:19:32.237Z,1.64
2023-11-25T22:21:58.694Z,1.95
2023-11-25T22:24:26.686Z,1.94
2023-11-25T22:27:11.038Z,1.91
2023-11-25T22:29:37.786Z,1.93
2023-11-25T22:32:05.036Z,1.93
2023-11-25T22:34:31.641Z,1.96
2023-11-25T22:36:58.528Z,1.95
2023-11-25T22:39:25.043Z,2.00
2023-11-25T22:41:51.533Z,1.96
2023-11-25T22:44:19.144Z,1.83
2023-11-25T22:46:45.684Z,1.70
2023-11-25T22:49:12.224Z,2.04
2023-11-25T22:51:38.754Z,1.89
2023-11-25T22:54:05.320Z,1.92
2023-11-25T22:56:31.792Z,2.08
2023-11-25T22:58:58.250Z,2.05
2023-11-25T23:01:36.779Z,2.01
2023-11-25T23:04:03.903Z,2.07
2023-11-25T23:06:35.991Z,2.06
2023-11-25T23:09:05.612Z,1.83
2023-11-25T23:11:32.858Z,1.74
2023-11-25T23:14:05.200Z,2.04
2023-11-25T23:16:32.610Z,1.95
2023-11-25T23:19:00.307Z,1.85
2023-11-25T23:21:27.760Z,1.96
2023-11-25T23:23:55.270Z,1.96
2023-11-25T23:26:21.908Z,1.94
2023-11-25T23:28:48.536Z,1.82
2023-11-25T23:31:15.047Z,1.91
2023-11-25T23:33:41.553Z,1.88
2023-11-25T23:36:09.238Z,1.82
2023-11-25T23:38:36.590Z,1.73
2023-11-25T23:41:03.146Z,1.84
2023-11-25T23:43:31.170Z,1.58
2023-11-25T23:45:57.740Z,1.82
2023-11-25T23:48:24.474Z,1.81
2023-11-25T23:50:50.970Z,1.55
2023-11-25T23:53:17.791Z,1.65
2023-11-25T23:55:44.410Z,1.76
2023-11-25T23:58:10.869Z,1.75
